Time;durP1;ratioP1;P1;durP2;ratioP2;P2;SDS_P1;SDS_P2;PMS_P1;PMS_P2;Temp;Humidity;BMP_temperature;BMP_pressure;BME280_temperature;BME280_humidity;BME280_pressure;Samples;Min_cycle;Max_cycle;Signal;HPM_P1;HPM_P2
2022/08/07 00:03:31;;;;;;;12.93;5.82;;;14.80;99.90;;;;;;10485272;28;20202;-79
2022/08/07 00:08:53;;;;;;;7.47;4.55;;;14.90;99.90;;;;;;10469381;28;20520;-82
2022/08/07 00:14:14;;;;;;;10.95;4.00;;;14.90;99.90;;;;;;10442474;28;20408;-81
2022/08/07 00:19:35;;;;;;;4.75;2.80;;;14.90;99.90;;;;;;10387172;28;20284;-79
2022/08/07 00:24:56;;;;;;;7.00;4.68;;;14.90;99.90;;;;;;10387357;28;20219;-81
2022/08/07 00:30:18;;;;;;;6.10;3.97;;;15.00;99.90;;;;;;10402113;28;20192;-82
2022/08/07 00:35:40;;;;;;;5.07;2.63;;;15.00;99.90;;;;;;10389536;28;20234;-81
2022/08/07 00:41:04;;;;;;;6.70;3.95;;;15.00;99.90;;;;;;10386405;28;20200;-78
2022/08/07 00:46:26;;;;;;;6.65;3.13;;;14.90;99.90;;;;;;10372854;28;20209;-80
2022/08/07 00:51:48;;;;;;;5.30;3.17;;;14.80;99.90;;;;;;10400084;28;20192;-80
2022/08/07 00:57:10;;;;;;;5.05;3.13;;;14.60;99.90;;;;;;10443756;28;20211;-79
2022/08/07 01:02:31;;;;;;;5.80;3.00;;;14.50;99.90;;;;;;10483030;28;20194;-80
2022/08/07 01:07:53;;;;;;;5.80;3.67;;;14.40;99.90;;;;;;10467063;28;20197;-80
2022/08/07 01:13:15;;;;;;;6.05;3.33;;;14.40;1.00;;;;;;10456471;28;20254;-82
2022/08/07 01:18:37;;;;;;;5.47;2.58;;;14.30;1.00;;;;;;10414995;28;20241;-81
2022/08/07 01:24:00;;;;;;;5.63;3.05;;;14.20;1.00;;;;;;10384765;28;20264;-81
2022/08/07 01:29:23;;;;;;;8.85;3.78;;;14.10;99.90;;;;;;10400937;28;20215;-79
2022/08/07 01:34:46;;;;;;;6.75;3.53;;;14.10;99.90;;;;;;10406457;28;20285;-80
2022/08/07 01:40:09;;;;;;;6.80;3.15;;;14.10;99.90;;;;;;10425107;28;20203;-81
2022/08/07 01:45:32;;;;;;;2.40;2.20;;;14.10;99.90;;;;;;10425502;28;20198;-80
2022/08/07 01:51:05;;;;;;;4.88;3.30;;;14.00;99.90;;;;;;10424390;28;20505;-81
2022/08/07 01:56:35;;;;;;;14.57;5.95;;;14.00;99.90;;;;;;10454279;28;20242;-81
2022/08/07 02:02:15;;;;;;;13.45;7.57;;;14.10;99.90;;;;;;10465123;28;20201;-80
2022/08/07 02:07:45;;;;;;;6.10;4.05;;;14.10;1.00;;;;;;10479718;28;20379;-81
2022/08/07 02:13:07;;;;;;;8.38;4.55;;;14.00;1.00;;;;;;10440282;28;20303;-80
2022/08/07 02:18:39;;;;;;;4.00;2.75;;;13.90;1.00;;;;;;10381433;28;20263;-80
2022/08/07 02:24:03;;;;;;;3.20;2.45;;;13.80;1.00;;;;;;10382603;28;20403;-81
2022/08/07 02:29:25;;;;;;;4.13;2.20;;;13.80;1.00;;;;;;10396396;28;20194;-80
2022/08/07 02:34:48;;;;;;;4.75;2.78;;;13.70;1.00;;;;;;10418123;28;20244;-79
2022/08/07 02:40:11;;;;;;;5.25;2.75;;;13.80;1.00;;;;;;10422772;28;20203;-79
2022/08/07 02:45:41;;;;;;;5.13;3.00;;;13.80;1.00;;;;;;10436599;28;20218;-79
2022/08/07 02:51:17;;;;;;;3.10;2.80;;;13.80;1.00;;;;;;10422382;28;20224;-80
2022/08/07 02:56:41;;;;;;;4.25;2.92;;;13.90;1.00;;;;;;10439564;28;20226;-79
2022/08/07 03:02:04;;;;;;;3.75;3.05;;;13.80;99.90;;;;;;10463003;28;20295;-81
2022/08/07 03:07:28;;;;;;;3.33;3.03;;;13.70;99.90;;;;;;10463194;28;20229;-79
2022/08/07 03:12:51;;;;;;;3.17;2.45;;;13.60;1.00;;;;;;10442719;28;20219;-82
2022/08/07 03:18:14;;;;;;;4.05;2.97;;;13.70;1.00;;;;;;10380532;28;20254;-82
2022/08/07 03:23:38;;;;;;;3.90;3.13;;;13.70;1.00;;;;;;10395042;28;20194;-82
2022/08/07 03:29:02;;;;;;;3.70;2.88;;;13.80;1.00;;;;;;10401194;28;20200;-80
2022/08/07 03:34:27;;;;;;;8.15;3.10;;;13.80;1.00;;;;;;10427359;28;20229;-82
2022/08/07 03:39:52;;;;;;;4.50;3.72;;;13.80;1.00;;;;;;10449232;28;20218;-82
2022/08/07 03:45:15;;;;;;;5.60;3.45;;;13.80;1.00;;;;;;10434546;28;20513;-80
2022/08/07 03:50:39;;;;;;;6.13;3.75;;;13.90;1.00;;;;;;10434641;28;20523;-80
2022/08/07 03:56:01;;;;;;;8.20;3.20;;;14.10;1.00;;;;;;10460809;28;20213;-80
2022/08/07 04:01:27;;;;;;;4.90;3.42;;;14.10;1.00;;;;;;10475632;28;20454;-80
2022/08/07 04:06:50;;;;;;;8.77;3.47;;;14.20;1.00;;;;;;10489920;28;20197;-79
2022/08/07 04:12:14;;;;;;;4.85;3.22;;;14.20;1.00;;;;;;10451426;28;20199;-79
2022/08/07 04:17:36;;;;;;;5.85;3.17;;;14.10;1.00;;;;;;10407053;28;20258;-80
2022/08/07 04:22:58;;;;;;;5.70;3.45;;;13.90;1.00;;;;;;10393118;28;20250;-80
2022/08/07 04:28:20;;;;;;;4.32;3.05;;;13.80;1.00;;;;;;10393038;28;20209;-80
2022/08/07 04:33:45;;;;;;;4.22;3.10;;;13.70;1.00;;;;;;10406451;28;20281;-79
2022/08/07 04:39:06;;;;;;;10.07;3.92;;;13.70;1.00;;;;;;10445630;28;20215;-79
2022/08/07 04:44:29;;;;;;;7.55;3.55;;;13.80;1.00;;;;;;10413405;28;20207;-79
2022/08/07 04:50:09;;;;;;;8.98;3.72;;;14.00;1.00;;;;;;10427510;28;20274;-80
2022/08/07 04:56:00;;;;;;;3.72;2.70;;;14.20;1.00;;;;;;10449588;28;20231;-79
2022/08/07 05:01:42;;;;;;;5.38;2.53;;;14.50;1.00;;;;;;10468290;28;20251;-79
2022/08/07 05:07:13;;;;;;;3.72;2.58;;;14.60;1.00;;;;;;10467555;28;20206;-80
2022/08/07 05:12:41;;;;;;;3.50;2.47;;;14.70;1.00;;;;;;10451307;28;20281;-80
2022/08/07 05:18:08;;;;;;;2.92;2.03;;;14.90;1.00;;;;;;10399882;28;20236;-80
2022/08/07 05:23:46;;;;;;;4.57;2.63;;;15.20;1.00;;;;;;10385120;28;20208;-80
2022/08/07 05:29:12;;;;;;;3.40;2.28;;;15.30;1.00;;;;;;10398596;28;20204;-80
2022/08/07 05:34:35;;;;;;;3.47;2.35;;;15.40;1.00;;;;;;10418890;28;20296;-79
2022/08/07 05:39:59;;;;;;;4.95;2.40;;;15.60;1.00;;;;;;10425322;28;20220;-78
2022/08/07 05:45:22;;;;;;;2.88;1.70;;;15.80;1.00;;;;;;10439153;28;20198;-80
2022/08/07 05:50:46;;;;;;;6.22;2.50;;;16.00;1.00;;;;;;10411427;28;20397;-79
2022/08/07 05:56:14;;;;;;;2.03;1.67;;;16.20;1.00;;;;;;10438926;28;20226;-80
2022/08/07 06:01:40;;;;;;;4.45;1.85;;;16.40;1.00;;;;;;10467328;28;20195;-80
2022/08/07 06:07:04;;;;;;;3.25;1.67;;;16.60;1.00;;;;;;10480256;28;20199;-81
2022/08/07 06:12:29;;;;;;;4.53;1.65;;;16.80;1.00;;;;;;10436861;28;20246;-81
2022/08/07 06:17:51;;;;;;;3.55;1.60;;;17.00;99.90;;;;;;10399627;28;20248;-80
2022/08/07 06:23:13;;;;;;;2.28;1.30;;;17.40;99.90;;;;;;10397177;28;20205;-81
2022/08/07 06:28:58;;;;;;;2.70;1.58;;;18.00;99.90;;;;;;10396604;28;20197;-81
2022/08/07 06:34:24;;;;;;;2.67;1.40;;;18.80;1.00;;;;;;10415120;28;20255;-80
2022/08/07 06:39:47;;;;;;;2.63;1.30;;;;;;;;;;10437008;28;20189;-81
2022/08/07 06:45:12;;;;;;;1.75;1.10;;;19.80;99.90;;;;;;10409104;28;20204;-79
2022/08/07 06:50:40;;;;;;;2.60;1.20;;;20.40;99.90;;;;;;10436768;28;20192;-81
2022/08/07 06:56:07;;;;;;;1.45;0.98;;;21.40;1.00;;;;;;10434406;28;20530;-81
2022/08/07 07:01:32;;;;;;;2.75;1.15;;;22.20;99.90;;;;;;10463626;28;20188;-81
2022/08/07 07:06:54;;;;;;;3.40;0.93;;;23.20;1.00;;;;;;10477278;28;20253;-81
2022/08/07 07:12:29;;;;;;;2.92;0.70;;;23.60;1.00;;;;;;10452329;28;20204;-81
2022/08/07 07:18:14;;;;;;;3.40;1.38;;;24.20;1.00;;;;;;10396998;28;20244;-80
2022/08/07 07:23:35;;;;;;;1.98;0.80;;;24.60;1.00;;;;;;10380719;28;20204;-80
2022/08/07 07:29:02;;;;;;;1.80;0.65;;;25.00;1.00;;;;;;10408762;28;20232;-82
2022/08/07 07:34:28;;;;;;;4.53;0.88;;;25.30;1.00;;;;;;10413356;28;20295;-82
2022/08/07 07:39:54;;;;;;;5.07;1.05;;;24.50;1.00;;;;;;10421631;28;20208;-80
2022/08/07 07:45:17;;;;;;;1.77;0.80;;;23.10;1.00;;;;;;10435509;28;20193;-82
2022/08/07 07:50:39;;;;;;;1.45;0.77;;;22.70;1.00;;;;;;10421116;28;20231;-82
2022/08/07 07:56:01;;;;;;;1.70;0.60;;;23.20;1.00;;;;;;10447103;28;20227;-81
2022/08/07 08:01:24;;;;;;;2.88;0.80;;;24.50;1.00;;;;;;10492916;28;20423;-81
2022/08/07 08:06:47;;;;;;;2.38;0.80;;;25.10;1.00;;;;;;10475956;28;20192;-80
2022/08/07 08:12:09;;;;;;;4.25;0.88;;;25.80;1.00;;;;;;10453167;28;20201;-82
2022/08/07 08:17:34;;;;;;;0.95;0.60;;;26.40;1.00;;;;;;10415394;28;20272;-81
2022/08/07 08:28:43;;;;;;;3.00;0.90;;;25.70;1.00;;;;;;10417519;28;20202;-82
2022/08/07 08:34:07;;;;;;;1.98;0.77;;;26.30;1.00;;;;;;10418086;28;20239;-81
2022/08/07 08:39:28;;;;;;;1.38;0.75;;;27.10;1.00;;;;;;10441629;28;20196;-82
2022/08/07 08:45:24;;;;;;;3.38;0.68;;;26.00;1.00;;;;;;10441565;28;20199;-81
2022/08/07 08:50:57;;;;;;;1.45;0.60;;;25.60;1.00;;;;;;10441005;28;20198;-80
2022/08/07 08:56:52;;;;;;;1.65;0.70;;;25.60;1.00;;;;;;10455318;28;20235;-82
2022/08/07 09:02:26;;;;;;;2.47;0.65;;;24.60;1.00;;;;;;10465118;28;20200;-80
2022/08/07 09:07:54;;;;;;;2.85;0.73;;;25.10;1.00;;;;;;10465154;28;20207;-81
2022/08/07 09:13:18;;;;;;;1.45;0.77;;;25.40;1.00;;;;;;10430201;28;20201;-79
2022/08/07 09:18:54;;;;;;;4.05;0.90;;;24.70;1.00;;;;;;10379525;28;20626;-81
2022/08/07 09:24:40;;;;;;;1.85;1.00;;;23.50;1.00;;;;;;10382254;28;20202;-80
2022/08/07 09:30:02;;;;;;;2.20;1.10;;;23.30;1.00;;;;;;10396056;28;20395;-81
2022/08/07 09:35:40;;;;;;;4.03;1.08;;;23.20;1.00;;;;;;10411800;28;20247;-81
2022/08/07 09:41:14;;;;;;;4.47;0.80;;;23.30;1.00;;;;;;10411476;28;20386;-80
2022/08/07 09:46:52;;;;;;;2.75;0.60;;;23.50;1.00;;;;;;10438787;28;20212;-79
2022/08/07 09:52:40;;;;;;;2.83;0.98;;;24.80;1.00;;;;;;10439040;28;20194;-81
2022/08/07 09:58:20;;;;;;;1.77;0.70;;;26.70;1.00;;;;;;10452966;28;20234;-82
2022/08/07 10:04:20;;;;;;;1.40;0.73;;;27.90;1.00;;;;;;10495988;28;20203;-82
2022/08/07 10:10:19;;;;;;;1.83;0.98;;;28.40;1.00;;;;;;10480181;28;20200;-80
2022/08/07 10:15:58;;;;;;;1.55;0.88;;;29.30;1.00;;;;;;10384715;28;20233;-82
2022/08/07 10:21:22;;;;;;;4.35;1.13;;;29.90;1.00;;;;;;10397919;28;20305;-82
2022/08/07 10:27:11;;;;;;;1.65;0.70;;;29.90;1.00;;;;;;10382642;28;20205;-82
2022/08/07 10:32:55;;;;;;;1.67;0.85;;;30.10;1.00;;;;;;10401087;28;20208;-82
2022/08/07 10:38:57;;;;;;;1.20;0.65;;;30.80;1.00;;;;;;10436024;28;20223;-82
2022/08/07 10:44:39;;;;;;;1.48;0.70;;;31.20;1.00;;;;;;10436632;28;20359;-82
2022/08/07 10:50:23;;;;;;;1.25;0.90;;;29.50;1.00;;;;;;10436621;28;20541;-80
2022/08/07 10:55:52;;;;;;;1.42;0.65;;;28.10;1.00;;;;;;10432253;28;20246;-81
2022/08/07 11:01:26;;;;;;;1.73;0.90;;;27.00;1.00;;;;;;10477342;28;20192;-81
2022/08/07 11:07:05;;;;;;;7.00;1.15;;;26.60;1.00;;;;;;10463661;28;20227;-82
2022/08/07 11:12:58;;;;;;;4.03;0.75;;;26.90;1.00;;;;;;10449987;28;20277;-82
2022/08/07 11:18:38;;;;;;;2.42;0.90;;;26.00;1.00;;;;;;10380849;28;20248;-82
2022/08/07 11:24:07;;;;;;;2.15;0.70;;;25.60;1.00;;;;;;10381437;28;20220;-80
2022/08/07 11:29:42;;;;;;;3.00;0.73;;;25.00;1.00;;;;;;10410719;28;20422;-81
2022/08/07 11:35:29;;;;;;;1.60;0.95;;;24.70;1.00;;;;;;10410945;28;20233;-82
2022/08/07 11:41:02;;;;;;;1.98;0.80;;;24.70;1.00;;;;;;10413404;28;20591;-80
2022/08/07 11:46:47;;;;;;;2.40;0.90;;;24.80;1.00;;;;;;10394426;28;20484;-82
2022/08/07 11:52:27;;;;;;;1.83;0.85;;;25.10;1.00;;;;;;10387501;28;20201;-82
2022/08/07 11:58:06;;;;;;;1.50;0.88;;;26.10;1.00;;;;;;10486289;28;20246;-82
2022/08/07 12:03:51;;;;;;;2.38;0.73;;;26.50;1.00;;;;;;10456417;28;20207;-80
2022/08/07 12:09:23;;;;;;;3.90;0.93;;;25.90;1.00;;;;;;10470083;28;20204;-80
2022/08/07 12:14:57;;;;;;;3.25;1.08;;;25.70;1.00;;;;;;10410477;28;20531;-80
2022/08/07 12:20:26;;;;;;;0.93;0.90;;;26.40;1.00;;;;;;10417724;28;20249;-80
2022/08/07 12:25:55;;;;;;;5.13;1.00;;;26.40;1.00;;;;;;10386814;28;20201;-80
2022/08/07 12:31:42;;;;;;;6.28;0.95;;;26.60;1.00;;;;;;10414958;28;20213;-80
2022/08/07 12:37:05;;;;;;;1.52;1.00;;;27.00;1.00;;;;;;10427757;28;20254;-80
2022/08/07 12:42:29;;;;;;;4.10;1.60;;;26.90;1.00;;;;;;10427327;28;20200;-80
2022/08/07 12:48:10;;;;;;;2.53;0.80;;;26.90;1.00;;;;;;10427377;28;20268;-79
2022/08/07 12:53:52;;;;;;;1.65;0.80;;;27.10;1.00;;;;;;10426648;28;20204;-80
2022/08/07 12:59:20;;;;;;;3.45;1.27;;;26.40;1.00;;;;;;10465146;28;20200;-79
2022/08/07 13:04:59;;;;;;;2.60;0.68;;;26.00;1.00;;;;;;10467344;28;20195;-80
2022/08/07 13:10:31;;;;;;;2.72;1.20;;;25.70;1.00;;;;;;10481430;28;20433;-79
2022/08/07 13:16:17;;;;;;;3.65;1.15;;;25.40;1.00;;;;;;10403085;28;20251;-79
2022/08/07 13:22:01;;;;;;;0.93;0.57;;;24.80;1.00;;;;;;10385093;28;20247;-80
2022/08/07 13:27:32;;;;;;;1.10;0.90;;;24.50;1.00;;;;;;10415089;28;20205;-79
2022/08/07 13:33:18;;;;;;;4.57;1.13;;;24.50;1.00;;;;;;10405048;28;20388;-80
2022/08/07 13:39:12;;;;;;;2.40;0.80;;;24.50;1.00;;;;;;10438917;28;20454;-80
2022/08/07 13:44:37;;;;;;;5.57;1.00;;;24.80;1.00;;;;;;10425070;28;20208;-79
2022/08/07 13:50:01;;;;;;;1.92;0.80;;;25.00;1.00;;;;;;10438713;28;20268;-79
2022/08/07 13:55:24;;;;;;;2.80;0.75;;;25.00;1.00;;;;;;10431229;28;20522;-79
2022/08/07 14:00:47;;;;;;;3.55;0.93;;;25.20;1.00;;;;;;10480066;28;20215;-80
2022/08/07 14:06:10;;;;;;;3.38;0.90;;;25.30;1.00;;;;;;10465422;28;20230;-79
2022/08/07 14:11:42;;;;;;;0.90;0.70;;;25.40;1.00;;;;;;10472813;28;20211;-80
2022/08/07 14:17:05;;;;;;;1.15;0.80;;;25.30;1.00;;;;;;10396537;28;20241;-80
2022/08/07 14:22:31;;;;;;;1.63;0.90;;;25.40;1.00;;;;;;10396745;28;20194;-79
2022/08/07 14:27:54;;;;;;;1.05;0.70;;;25.30;1.00;;;;;;10382775;28;20223;-80
2022/08/07 14:33:17;;;;;;;3.55;1.10;;;25.00;1.00;;;;;;10422695;28;20209;-80
2022/08/07 14:38:41;;;;;;;1.45;0.88;;;25.00;1.00;;;;;;10437945;28;20295;-81
2022/08/07 14:44:07;;;;;;;1.45;0.88;;;25.00;1.00;;;;;;10422917;28;20242;-80
2022/08/07 14:49:32;;;;;;;1.83;0.82;;;25.00;1.00;;;;;;10436322;28;20211;-80
2022/08/07 14:54:55;;;;;;;2.05;0.90;;;24.90;1.00;;;;;;10439987;28;20606;-79
2022/08/07 15:00:18;;;;;;;2.15;1.08;;;24.60;1.00;;;;;;10463322;28;20199;-81
2022/08/07 15:05:41;;;;;;;2.42;0.90;;;24.40;1.00;;;;;;10477366;28;20491;-80
2022/08/07 15:11:12;;;;;;;4.03;1.25;;;23.80;1.00;;;;;;10456872;28;20289;-82
2022/08/07 15:16:47;;;;;;;3.38;1.40;;;23.70;1.00;;;;;;10394572;28;20228;-81
2022/08/07 15:22:09;;;;;;;2.40;1.20;;;23.50;1.00;;;;;;10380605;28;20228;-82
2022/08/07 15:27:40;;;;;;;2.80;1.20;;;23.30;1.00;;;;;;10394692;28;20200;-80
2022/08/07 15:33:03;;;;;;;2.20;0.93;;;23.20;1.00;;;;;;10404875;28;20272;-82
2022/08/07 15:38:31;;;;;;;2.17;1.00;;;23.20;1.00;;;;;;10435523;28;20224;-82
2022/08/07 15:44:16;;;;;;;2.38;1.05;;;22.90;1.00;;;;;;10435145;28;20416;-80
2022/08/07 15:49:38;;;;;;;3.15;1.00;;;22.90;1.00;;;;;;10421273;28;20271;-81
2022/08/07 15:55:03;;;;;;;9.65;1.63;;;22.80;1.00;;;;;;10424468;28;20452;-81
2022/08/07 16:00:31;;;;;;;2.60;1.35;;;22.90;1.00;;;;;;10476460;28;20546;-79
2022/08/07 16:05:53;;;;;;;2.92;1.17;;;22.90;1.00;;;;;;10461666;28;20200;-80
2022/08/07 16:11:38;;;;;;;1.92;1.02;;;22.80;1.00;;;;;;10482655;28;20220;-81
2022/08/07 16:17:00;;;;;;;3.42;0.90;;;22.80;1.00;;;;;;10393406;28;20316;-82
2022/08/07 16:23:17;;;;;;;2.85;1.10;;;22.70;1.00;;;;;;10393619;28;20268;-82
2022/08/07 16:29:09;;;;;;;4.47;1.13;;;22.50;1.00;;;;;;10230343;29;20279;-80
2022/08/07 16:34:45;;;;;;;4.40;1.42;;;22.30;1.00;;;;;;10249424;28;20534;-79
2022/08/07 16:40:33;;;;;;;7.68;1.80;;;22.20;1.00;;;;;;10247917;28;20510;-78
2022/08/07 16:46:18;;;;;;;4.63;0.93;;;22.10;1.00;;;;;;10247376;28;20222;-81
2022/08/07 16:52:02;;;;;;;4.28;0.95;;;22.20;1.00;;;;;;10263269;28;20569;-80
2022/08/07 16:57:59;;;;;;;1.92;1.00;;;22.20;1.00;;;;;;10271672;28;20244;-81
2022/08/07 17:03:49;;;;;;;2.03;1.35;;;22.30;1.00;;;;;;10349636;28;20399;-82
2022/08/07 17:09:36;;;;;;;1.67;0.95;;;22.30;1.00;;;;;;10481627;28;20234;-81
2022/08/07 17:15:16;;;;;;;2.03;1.42;;;22.10;1.00;;;;;;10404315;28;20444;-80
2022/08/07 17:20:42;;;;;;;3.47;1.40;;;22.00;1.00;;;;;;10415221;28;20237;-82
2022/08/07 17:26:10;;;;;;;2.63;1.60;;;21.70;1.00;;;;;;10398730;28;20578;-79
2022/08/07 17:31:37;;;;;;;3.45;1.48;;;21.60;1.00;;;;;;10412498;28;20236;-81
2022/08/07 17:37:10;;;;;;;2.13;1.30;;;21.50;1.00;;;;;;10412002;28;20415;-82
2022/08/07 17:43:01;;;;;;;4.63;1.60;;;21.40;1.00;;;;;;10399360;28;20516;-80
2022/08/07 17:48:38;;;;;;;5.57;1.42;;;21.30;1.00;;;;;;10383931;28;20201;-81
2022/08/07 17:54:07;;;;;;;3.67;1.92;;;21.30;1.00;;;;;;10383814;28;20212;-79
2022/08/07 17:59:43;;;;;;;3.05;2.10;;;21.30;1.00;;;;;;10478613;28;20495;-79
2022/08/07 18:05:26;;;;;;;3.38;1.60;;;21.20;1.00;;;;;;10482364;28;20269;-82
2022/08/07 18:11:06;;;;;;;2.10;1.52;;;21.10;1.00;;;;;;10477210;28;20210;-82
2022/08/07 18:16:42;;;;;;;3.28;1.70;;;21.10;1.00;;;;;;10397740;28;20232;-82
2022/08/07 18:22:22;;;;;;;3.42;2.05;;;21.00;1.00;;;;;;10411100;28;20493;-82
2022/08/07 18:27:53;;;;;;;6.20;2.35;;;20.90;27.30;;;;;;10382596;28;20211;-81
2022/08/07 18:33:45;;;;;;;6.88;2.08;;;20.70;99.90;;;;;;10420080;28;20239;-82
2022/08/07 18:39:26;;;;;;;6.50;2.05;;;20.60;99.90;;;;;;10422944;28;20554;-82
2022/08/07 18:44:53;;;;;;;3.63;1.67;;;20.40;99.90;;;;;;10422786;28;20292;-80
2022/08/07 18:50:46;;;;;;;5.70;2.25;;;20.30;1.00;;;;;;10424968;28;20204;-80
2022/08/07 18:56:18;;;;;;;5.30;2.63;;;20.20;1.00;;;;;;10449217;28;20450;-80
2022/08/07 19:02:20;;;;;;;4.07;2.65;;;20.10;1.00;;;;;;10477080;28;20226;-81
2022/08/07 19:07:47;;;;;;;4.10;2.42;;;20.00;99.90;;;;;;10474636;28;20204;-81
2022/08/07 19:13:21;;;;;;;4.03;2.20;;;19.90;1.00;;;;;;10413753;28;20251;-82
2022/08/07 19:18:53;;;;;;;4.18;2.08;;;19.70;99.90;;;;;;10378028;28;20244;-80
2022/08/07 19:24:21;;;;;;;4.97;2.15;;;19.70;99.90;;;;;;10392500;28;20205;-82
2022/08/07 19:29:47;;;;;;;2.08;1.45;;;19.60;1.00;;;;;;10375193;28;20232;-79
2022/08/07 19:35:18;;;;;;;2.53;1.70;;;19.50;1.00;;;;;;10417187;28;20224;-79
2022/08/07 19:40:41;;;;;;;2.55;1.73;;;19.60;82.60;;;;;;10433812;28;20506;-79
2022/08/07 19:46:03;;;;;;;6.22;2.00;;;19.40;99.90;;;;;;10421224;28;20208;-81
2022/08/07 19:51:27;;;;;;;4.10;1.95;;;19.40;1.00;;;;;;10435330;28;20188;-81
2022/08/07 19:56:53;;;;;;;9.13;2.35;;;19.30;1.00;;;;;;10453371;28;20223;-81
2022/08/07 20:02:25;;;;;;;7.50;2.47;;;19.20;99.90;;;;;;10476491;28;20238;-80
2022/08/07 20:07:47;;;;;;;6.03;2.22;;;19.00;1.00;;;;;;10477310;28;20188;-79
2022/08/07 20:13:16;;;;;;;7.05;2.70;;;19.00;99.90;;;;;;10443542;28;20420;-82
2022/08/07 20:18:40;;;;;;;5.78;3.20;;;18.90;99.90;;;;;;10417742;28;20240;-79
2022/08/07 20:24:06;;;;;;;10.15;3.92;;;18.80;99.90;;;;;;10417582;28;20201;-79
2022/08/07 20:29:32;;;;;;;6.18;2.95;;;18.70;1.00;;;;;;10387166;28;20521;-79
2022/08/07 20:35:01;;;;;;;5.75;3.22;;;18.60;1.00;;;;;;10423951;28;20559;-79
2022/08/07 20:40:23;;;;;;;4.10;2.60;;;18.60;1.00;;;;;;10442711;28;20192;-79
2022/08/07 20:45:49;;;;;;;5.03;2.58;;;18.50;61.50;;;;;;10441716;28;20456;-79
2022/08/07 20:51:11;;;;;;;5.10;2.90;;;18.40;1.00;;;;;;10442483;28;20196;-79
2022/08/07 20:56:40;;;;;;;3.80;2.20;;;18.40;99.90;;;;;;10457206;28;20222;-79
2022/08/07 21:02:08;;;;;;;3.92;1.70;;;18.30;99.90;;;;;;10468488;28;20199;-79
2022/08/07 21:07:31;;;;;;;5.13;1.67;;;18.30;1.00;;;;;;10498459;28;20208;-78
2022/08/07 21:12:55;;;;;;;4.95;2.30;;;18.30;1.00;;;;;;10447203;28;20202;-79
2022/08/07 21:18:23;;;;;;;2.83;1.80;;;18.30;1.00;;;;;;10385170;28;20249;-78
2022/08/07 21:23:55;;;;;;;5.05;2.33;;;18.20;1.00;;;;;;10414591;28;20208;-79
2022/08/07 21:29:30;;;;;;;3.60;2.03;;;18.20;99.90;;;;;;10399047;28;20255;-78
2022/08/07 21:35:07;;;;;;;4.70;2.20;;;18.10;1.00;;;;;;10421645;28;20197;-79
2022/08/07 21:40:46;;;;;;;3.88;2.30;;;18.00;99.90;;;;;;10425347;28;20204;-78
2022/08/07 21:46:15;;;;;;;4.10;2.30;;;17.90;99.90;;;;;;10425554;28;20288;-78
2022/08/07 21:52:08;;;;;;;4.57;2.10;;;17.80;1.00;;;;;;10439168;28;20200;-78
2022/08/07 21:57:55;;;;;;;3.58;2.30;;;17.80;1.00;;;;;;10448757;28;20231;-80
2022/08/07 22:03:36;;;;;;;3.75;2.35;;;17.70;99.90;;;;;;10465827;28;20205;-79
2022/08/07 22:09:08;;;;;;;4.53;2.40;;;17.70;1.00;;;;;;10495830;28;20207;-79
2022/08/07 22:14:55;;;;;;;7.95;2.75;;;17.70;1.00;;;;;;10410181;28;20365;-80
2022/08/07 22:20:35;;;;;;;6.90;3.10;;;17.70;1.00;;;;;;10412976;28;20252;-80
2022/08/07 22:26:24;;;;;;;4.47;3.08;;;17.70;1.00;;;;;;10396700;28;20201;-80
2022/08/07 22:32:14;;;;;;;6.35;2.88;;;17.70;99.90;;;;;;10397662;28;20224;-80
2022/08/07 22:38:03;;;;;;;4.93;2.83;;;17.60;99.90;;;;;;10409611;28;20232;-79
2022/08/07 22:43:47;;;;;;;4.45;3.05;;;17.40;1.00;;;;;;10397052;28;20264;-79
2022/08/07 22:49:18;;;;;;;5.70;2.83;;;17.40;1.00;;;;;;10428508;28;20232;-80
2022/08/07 22:54:50;;;;;;;4.60;2.45;;;17.30;1.00;;;;;;10383214;28;20209;-79
2022/08/07 23:00:39;;;;;;;3.85;2.60;;;17.40;1.00;;;;;;10463712;28;20195;-80
2022/08/07 23:06:27;;;;;;;5.13;2.78;;;17.40;1.00;;;;;;10463193;28;20204;-80
2022/08/07 23:11:58;;;;;;;6.90;2.70;;;17.20;1.00;;;;;;10446094;28;20208;-80
2022/08/07 23:17:38;;;;;;;4.10;2.58;;;17.20;47.50;;;;;;10395501;28;20436;-80
2022/08/07 23:23:37;;;;;;;3.95;2.60;;;17.10;99.90;;;;;;10394591;28;20271;-79
2022/08/07 23:29:32;;;;;;;6.57;2.78;;;17.00;99.90;;;;;;10394768;28;20189;-80
2022/08/07 23:35:29;;;;;;;5.10;3.03;;;17.00;99.90;;;;;;10418346;28;20247;-80
2022/08/07 23:41:05;;;;;;;6.47;3.65;;;17.00;99.90;;;;;;10421419;28;20209;-79
2022/08/07 23:46:47;;;;;;;7.60;4.30;;;17.10;99.90;;;;;;10425547;28;20391;-79
2022/08/07 23:52:36;;;;;;;5.30;3.67;;;16.90;99.90;;;;;;10429674;28;20270;-79
2022/08/07 23:58:07;;;;;;;8.48;3.97;;;16.90;99.90;;;;;;10471157;28;20229;-79
